createdAt,value
2018-05-06T00:00:10.216Z,12.39
2018-05-06T00:01:10.292Z,12.40
2018-05-06T00:02:10.356Z,12.28
2018-05-06T00:03:10.408Z,12.31
2018-05-06T00:04:10.464Z,12.25
2018-05-06T00:05:10.525Z,12.22
2018-05-06T00:06:10.620Z,12.15
2018-05-06T00:07:10.685Z,12.21
2018-05-06T00:08:10.733Z,12.15
2018-05-06T00:09:10.808Z,12.07
2018-05-06T00:10:10.861Z,12.17
2018-05-06T00:11:10.920Z,12.04
2018-05-06T00:12:11.000Z,12.04
2018-05-06T00:13:11.041Z,12.02
2018-05-06T00:14:11.113Z,12.04
2018-05-06T00:15:11.190Z,12.07
2018-05-06T00:16:11.265Z,12.02
2018-05-06T00:17:11.316Z,12.04
2018-05-06T00:18:11.385Z,12.02
2018-05-06T00:19:11.433Z,12.06
2018-05-06T00:20:11.497Z,12.02
2018-05-06T00:21:11.566Z,12.02
2018-05-06T00:22:11.641Z,12.02
2018-05-06T00:23:11.693Z,12.02
2018-05-06T00:24:11.757Z,12.12
2018-05-06T00:25:11.821Z,12.00
2018-05-06T00:26:11.889Z,12.04
2018-05-06T00:27:11.957Z,12.03
2018-05-06T00:28:12.014Z,12.06
2018-05-06T00:29:12.089Z,12.06
2018-05-06T00:30:12.153Z,12.04
2018-05-06T00:31:12.237Z,12.04
2018-05-06T00:32:12.274Z,12.07
2018-05-06T00:33:12.337Z,12.04
2018-05-06T00:34:12.393Z,12.04
2018-05-06T00:35:12.473Z,12.07
2018-05-06T00:36:12.546Z,12.02
2018-05-06T00:37:12.621Z,12.00
2018-05-06T00:38:12.650Z,12.00
2018-05-06T00:39:12.725Z,12.02
2018-05-06T00:40:12.785Z,11.99
2018-05-06T00:41:12.849Z,11.91
2018-05-06T00:42:12.925Z,11.90
2018-05-06T00:43:12.986Z,11.90
2018-05-06T00:44:13.037Z,11.80
2018-05-06T00:45:13.152Z,11.81
2018-05-06T00:46:13.190Z,11.73
2018-05-06T00:47:13.238Z,11.75
2018-05-06T00:48:13.298Z,11.60
2018-05-06T00:49:13.358Z,11.63
2018-05-06T00:50:13.431Z,11.57
2018-05-06T00:51:13.506Z,11.69
2018-05-06T00:52:13.562Z,11.72
2018-05-06T00:53:13.625Z,11.72
2018-05-06T00:54:13.686Z,11.72
2018-05-06T00:55:13.746Z,11.73
2018-05-06T00:56:13.826Z,11.75
2018-05-06T00:57:13.890Z,11.69
2018-05-06T00:58:13.946Z,11.70
2018-05-06T00:59:14.014Z,11.62
2018-05-06T01:00:14.066Z,11.70
2018-05-06T01:01:14.438Z,11.54
2018-05-06T01:02:14.198Z,11.69
2018-05-06T01:03:14.262Z,11.77
2018-05-06T01:04:14.335Z,11.77
2018-05-06T01:05:14.394Z,11.77
2018-05-06T01:06:14.458Z,11.77
2018-05-06T01:07:14.526Z,11.72
2018-05-06T01:08:14.583Z,11.70
2018-05-06T01:09:14.733Z,11.70
2018-05-06T01:10:14.707Z,11.70
2018-05-06T01:11:14.775Z,11.62
2018-05-06T01:12:14.847Z,11.62
2018-05-06T01:13:14.907Z,11.57
2018-05-06T01:14:14.967Z,11.66
2018-05-06T01:15:15.031Z,11.51
2018-05-06T01:16:15.099Z,11.65
2018-05-06T01:17:15.187Z,11.54
2018-05-06T01:18:15.223Z,11.52
2018-05-06T01:19:15.287Z,11.66
2018-05-06T01:20:15.351Z,11.55
2018-05-06T01:21:15.415Z,11.59
2018-05-06T01:22:15.483Z,11.63
2018-05-06T01:23:15.547Z,11.62
2018-05-06T01:24:15.607Z,11.54
2018-05-06T01:25:15.673Z,11.57
2018-05-06T01:26:15.736Z,11.54
2018-05-06T01:27:15.803Z,11.55
2018-05-06T01:28:15.868Z,11.50
2018-05-06T01:29:15.928Z,11.45
2018-05-06T01:30:15.988Z,11.40
2018-05-06T01:31:16.056Z,11.36
2018-05-06T01:32:16.192Z,11.32
2018-05-06T01:33:16.184Z,11.43
2018-05-06T01:34:16.244Z,11.30
2018-05-06T01:35:16.314Z,11.29
2018-05-06T01:36:16.372Z,11.37
2018-05-06T01:37:16.449Z,11.48
2018-05-06T01:38:16.508Z,11.41
2018-05-06T01:39:16.564Z,11.37
2018-05-06T01:40:16.628Z,11.41
2018-05-06T01:41:16.760Z,11.35
2018-05-06T01:42:16.764Z,11.37
2018-05-06T01:43:16.830Z,11.41
2018-05-06T01:44:16.888Z,11.30
2018-05-06T01:45:16.954Z,11.32
2018-05-06T01:46:17.013Z,11.29
2018-05-06T01:47:17.200Z,11.25
2018-05-06T01:48:17.212Z,11.17
2018-05-06T01:49:17.205Z,11.19
2018-05-06T01:50:17.269Z,11.10
2018-05-06T01:51:17.333Z,11.18
2018-05-06T01:52:17.400Z,11.25
2018-05-06T01:53:17.461Z,11.11
2018-05-06T01:54:17.525Z,11.02
2018-05-06T01:55:17.589Z,11.00
2018-05-06T01:56:17.653Z,11.08
2018-05-06T01:57:17.725Z,11.05
2018-05-06T01:58:17.787Z,11.05
2018-05-06T01:59:17.841Z,10.99
2018-05-06T02:00:17.908Z,11.04
2018-05-06T02:01:17.969Z,11.00
2018-05-06T02:02:18.037Z,11.10
2018-05-06T02:03:18.437Z,11.02
2018-05-06T02:04:18.161Z,11.02
2018-05-06T02:05:18.229Z,11.12
2018-05-06T02:06:18.289Z,11.00
2018-05-06T02:07:18.353Z,10.94
2018-05-06T02:08:18.422Z,10.94
2018-05-06T02:09:18.485Z,10.99
2018-05-06T02:10:18.557Z,10.97
2018-05-06T02:11:18.606Z,10.97
2018-05-06T02:12:18.669Z,10.96
2018-05-06T02:13:18.749Z,10.89
2018-05-06T02:14:18.805Z,10.93
2018-05-06T02:15:18.878Z,10.93
2018-05-06T02:16:18.925Z,10.92
2018-05-06T02:17:18.990Z,10.90
2018-05-06T02:18:19.057Z,10.90
2018-05-06T02:19:19.155Z,10.89
2018-05-06T02:20:19.185Z,10.72
2018-05-06T02:21:19.246Z,10.84
2018-05-06T02:22:19.306Z,10.84
2018-05-06T02:23:19.379Z,10.75
2018-05-06T02:24:19.443Z,10.75
2018-05-06T02:25:19.502Z,10.78
2018-05-06T02:26:19.563Z,10.78
2018-05-06T02:27:19.631Z,10.74
2018-05-06T02:28:19.702Z,10.64
2018-05-06T02:29:19.762Z,10.63
2018-05-06T02:30:19.819Z,10.64
2018-05-06T02:31:19.882Z,10.64
2018-05-06T02:32:19.943Z,10.71
2018-05-06T02:33:20.015Z,10.61
2018-05-06T02:34:20.079Z,10.59
2018-05-06T02:35:20.135Z,10.68
2018-05-06T02:36:20.202Z,10.71
2018-05-06T02:37:20.263Z,10.69
2018-05-06T02:38:20.348Z,10.60
2018-05-06T02:39:20.391Z,10.64
2018-05-06T02:40:20.456Z,10.68
2018-05-06T02:41:20.515Z,10.60
2018-05-06T02:42:20.579Z,10.64
2018-05-06T02:43:20.655Z,10.61
2018-05-06T02:44:20.715Z,10.59
2018-05-06T02:45:20.771Z,10.51
2018-05-06T02:46:20.835Z,10.46
2018-05-06T02:47:20.899Z,10.42
2018-05-06T02:48:20.967Z,10.41
2018-05-06T02:49:21.036Z,10.37
2018-05-06T02:50:21.087Z,10.37
2018-05-06T02:51:21.152Z,10.38
2018-05-06T02:52:21.215Z,10.35
2018-05-06T02:53:21.279Z,10.44
2018-05-06T02:54:21.357Z,10.42
2018-05-06T02:55:21.407Z,10.40
2018-05-06T02:56:21.469Z,10.34
2018-05-06T02:57:21.532Z,10.20
2018-05-06T02:58:21.596Z,10.25
2018-05-06T02:59:21.667Z,10.13
2018-05-06T03:00:21.728Z,10.12
2018-05-06T03:01:21.789Z,10.15
2018-05-06T03:02:21.848Z,10.17
2018-05-06T03:03:21.912Z,10.15
2018-05-06T03:04:21.991Z,10.12
2018-05-06T03:05:22.052Z,10.17
2018-05-06T03:06:22.104Z,10.15
2018-05-06T03:07:22.173Z,10.16
2018-05-06T03:08:22.232Z,10.19
2018-05-06T03:09:22.596Z,10.15
2018-05-06T03:10:22.357Z,10.15
2018-05-06T03:11:22.421Z,10.16
2018-05-06T03:12:22.488Z,10.20
2018-05-06T03:13:22.549Z,10.19
2018-05-06T03:14:22.617Z,10.13
2018-05-06T03:15:22.684Z,10.07
2018-05-06T03:16:22.736Z,10.07
2018-05-06T03:17:22.801Z,10.12
2018-05-06T03:18:22.865Z,10.04
2018-05-06T03:19:22.932Z,10.05
2018-05-06T03:20:22.997Z,9.92
2018-05-06T03:21:23.063Z,9.92
2018-05-06T03:22:23.121Z,9.91
2018-05-06T03:23:23.181Z,9.95
2018-05-06T03:24:23.261Z,9.89
2018-05-06T03:25:23.309Z,9.87
2018-05-06T03:26:23.372Z,9.91
2018-05-06T03:27:23.433Z,9.91
2018-05-06T03:28:23.501Z,9.84
2018-05-06T03:29:23.570Z,9.86
2018-05-06T03:30:23.629Z,9.89
2018-05-06T03:31:23.689Z,9.86
2018-05-06T03:32:23.753Z,9.95
2018-05-06T03:33:23.817Z,9.97
2018-05-06T03:34:23.885Z,9.83
2018-05-06T03:35:23.950Z,9.92
2018-05-06T03:36:24.009Z,9.92
2018-05-06T03:37:24.070Z,9.89
2018-05-06T03:38:24.133Z,9.92
2018-05-06T03:39:24.349Z,9.91
2018-05-06T03:40:24.257Z,9.91
2018-05-06T03:41:24.321Z,9.92
2018-05-06T03:42:24.385Z,9.94
2018-05-06T03:43:24.445Z,9.86
2018-05-06T03:44:24.518Z,9.91
2018-05-06T03:45:24.582Z,9.95
2018-05-06T03:46:24.638Z,10.04
2018-05-06T03:47:24.702Z,10.05
2018-05-06T03:48:24.766Z,10.04
2018-05-06T03:49:24.838Z,10.02
2018-05-06T03:50:24.899Z,10.04
2018-05-06T03:51:24.954Z,9.94
2018-05-06T03:52:25.023Z,9.98
2018-05-06T03:53:25.082Z,9.97
2018-05-06T03:54:25.298Z,9.84
2018-05-06T03:55:25.210Z,9.92
2018-05-06T03:56:25.270Z,9.82
2018-05-06T03:57:25.334Z,9.92
2018-05-06T03:58:25.396Z,9.84
2018-05-06T03:59:25.466Z,9.89
2018-05-06T04:00:25.608Z,9.91
2018-05-06T04:01:25.587Z,9.94
2018-05-06T04:02:25.650Z,9.94
2018-05-06T04:03:25.710Z,9.83
2018-05-06T04:04:25.784Z,9.87
2018-05-06T04:05:25.846Z,9.77
2018-05-06T04:06:25.902Z,9.87
2018-05-06T04:07:25.967Z,9.84
2018-05-06T04:08:26.027Z,9.80
2018-05-06T04:09:26.254Z,9.84
2018-05-06T04:10:26.155Z,9.84
2018-05-06T04:11:26.219Z,9.84
2018-05-06T04:12:26.283Z,9.87
2018-05-06T04:13:26.343Z,9.83
2018-05-06T04:14:26.419Z,9.79
2018-05-06T04:15:26.475Z,9.80
2018-05-06T04:16:26.534Z,9.79
2018-05-06T04:17:26.599Z,9.77
2018-05-06T04:18:26.675Z,9.83
2018-05-06T04:19:26.731Z,9.77
2018-05-06T04:20:26.791Z,9.80
2018-05-06T04:21:26.851Z,9.83
2018-05-06T04:22:26.911Z,9.84
2018-05-06T04:23:26.975Z,9.84
2018-05-06T04:24:27.223Z,9.83
2018-05-06T04:25:27.107Z,9.82
2018-05-06T04:26:27.163Z,9.83
2018-05-06T04:27:27.231Z,9.80
2018-05-06T04:28:27.295Z,9.80
2018-05-06T04:29:27.511Z,9.87
2018-05-06T04:30:27.415Z,9.84
2018-05-06T04:31:27.480Z,9.80
2018-05-06T04:32:27.543Z,9.84
2018-05-06T04:33:27.608Z,9.84
2018-05-06T04:34:27.675Z,9.86
2018-05-06T04:35:27.740Z,9.97
2018-05-06T04:36:27.796Z,9.97
2018-05-06T04:37:27.860Z,10.01
2018-05-06T04:38:27.924Z,10.01
2018-05-06T04:39:28.200Z,10.05
2018-05-06T04:40:28.064Z,10.09
2018-05-06T04:41:28.112Z,10.01
2018-05-06T04:42:28.184Z,9.99
2018-05-06T04:43:28.240Z,10.01
2018-05-06T04:44:28.316Z,10.01
2018-05-06T04:45:28.364Z,10.04
2018-05-06T04:46:28.484Z,10.12
2018-05-06T04:47:28.500Z,10.05
2018-05-06T04:48:28.561Z,10.13
2018-05-06T04:49:28.624Z,10.16
2018-05-06T04:50:28.705Z,10.19
2018-05-06T04:51:28.749Z,10.17
2018-05-06T04:52:28.809Z,10.16
2018-05-06T04:53:28.872Z,10.17
2018-05-06T04:54:28.944Z,10.10
2018-05-06T04:55:29.010Z,10.09
2018-05-06T04:56:29.061Z,10.16
2018-05-06T04:57:29.125Z,10.19
2018-05-06T04:58:29.185Z,10.09
2018-05-06T04:59:29.272Z,10.10
2018-05-06T05:00:29.313Z,10.12
2018-05-06T05:01:29.377Z,10.07
2018-05-06T05:02:29.437Z,10.15
2018-05-06T05:03:29.501Z,10.15
2018-05-06T05:04:29.573Z,10.20
2018-05-06T05:05:29.637Z,10.20
2018-05-06T05:06:29.693Z,10.40
2018-05-06T05:07:29.757Z,10.31
2018-05-06T05:08:29.821Z,10.40
2018-05-06T05:09:29.948Z,10.40
2018-05-06T05:10:29.953Z,10.44
2018-05-06T05:11:30.010Z,10.48
2018-05-06T05:12:30.073Z,10.56
2018-05-06T05:13:30.138Z,10.57
2018-05-06T05:14:30.225Z,10.56
2018-05-06T05:15:30.262Z,10.54
2018-05-06T05:16:30.332Z,10.72
2018-05-06T05:17:30.390Z,10.68
2018-05-06T05:18:30.450Z,10.69
2018-05-06T05:19:30.522Z,10.75
2018-05-06T05:20:30.586Z,10.76
2018-05-06T05:21:30.642Z,10.86
2018-05-06T05:22:30.706Z,10.92
2018-05-06T05:23:30.766Z,11.10
2018-05-06T05:24:30.838Z,11.08
2018-05-06T05:25:30.902Z,11.17
2018-05-06T05:26:30.958Z,11.30
2018-05-06T05:27:31.018Z,11.29
2018-05-06T05:28:31.086Z,11.29
2018-05-06T05:29:31.173Z,11.41
2018-05-06T05:30:31.214Z,11.50
2018-05-06T05:31:31.278Z,11.47
2018-05-06T05:32:31.339Z,11.51
2018-05-06T05:33:31.406Z,11.51
2018-05-06T05:34:31.513Z,11.55
2018-05-06T05:35:31.542Z,11.68
2018-05-06T05:36:31.595Z,11.63
2018-05-06T05:37:31.658Z,11.73
2018-05-06T05:38:31.726Z,11.72
2018-05-06T05:39:31.790Z,11.66
2018-05-06T05:40:31.859Z,11.81
2018-05-06T05:41:31.915Z,11.84
2018-05-06T05:42:31.975Z,11.97
2018-05-06T05:43:32.039Z,11.99
2018-05-06T05:44:32.123Z,11.99
2018-05-06T05:45:32.167Z,12.17
2018-05-06T05:46:32.270Z,12.22
2018-05-06T05:47:32.310Z,12.32
2018-05-06T05:48:32.363Z,12.36
2018-05-06T05:49:32.435Z,12.39
2018-05-06T05:50:32.491Z,12.50
2018-05-06T05:51:32.563Z,12.60
2018-05-06T05:52:32.615Z,12.58
2018-05-06T05:53:32.682Z,12.67
2018-05-06T05:54:32.751Z,12.76
2018-05-06T05:55:32.931Z,12.73
2018-05-06T05:56:32.867Z,12.83
2018-05-06T05:57:32.931Z,12.80
2018-05-06T05:58:32.995Z,12.87
2018-05-06T05:59:33.064Z,12.91
2018-05-06T06:00:33.135Z,12.97
2018-05-06T06:01:33.265Z,13.03
2018-05-06T06:02:33.251Z,13.04
2018-05-06T06:03:33.313Z,13.15
2018-05-06T06:04:33.387Z,13.22
2018-05-06T06:05:33.456Z,13.31
2018-05-06T06:06:33.508Z,13.35
2018-05-06T06:07:33.576Z,13.35
2018-05-06T06:08:33.640Z,13.31
2018-05-06T06:09:33.708Z,13.28
2018-05-06T06:10:33.772Z,13.46
2018-05-06T06:11:33.832Z,13.54
2018-05-06T06:12:33.892Z,13.50
2018-05-06T06:13:33.956Z,13.57
2018-05-06T06:14:34.024Z,13.65
2018-05-06T06:15:34.091Z,13.78
2018-05-06T06:16:34.144Z,13.81
2018-05-06T06:17:34.224Z,13.78
2018-05-06T06:18:34.276Z,13.93
2018-05-06T06:19:34.367Z,13.85
2018-05-06T06:20:34.408Z,14.03
2018-05-06T06:21:34.468Z,13.99
2018-05-06T06:22:34.535Z,14.08
2018-05-06T06:23:34.597Z,14.03
2018-05-06T06:24:34.729Z,14.14
2018-05-06T06:25:34.799Z,14.32
2018-05-06T06:26:34.789Z,14.40
2018-05-06T06:27:34.853Z,14.40
2018-05-06T06:28:34.917Z,14.45
2018-05-06T06:29:34.988Z,14.44
2018-05-06T06:30:35.053Z,14.59
2018-05-06T06:31:35.109Z,14.69
2018-05-06T06:32:35.193Z,14.81
2018-05-06T06:33:35.297Z,14.91
2018-05-06T06:34:35.612Z,14.88
2018-05-06T06:35:35.390Z,14.96
2018-05-06T06:36:35.517Z,15.09
2018-05-06T06:37:35.499Z,15.40
2018-05-06T06:38:35.581Z,16.04
2018-05-06T06:39:35.649Z,17.08
2018-05-06T06:40:35.829Z,18.16
2018-05-06T06:41:36.209Z,19.26
2018-05-06T06:42:35.929Z,20.14
2018-05-06T06:43:35.957Z,20.97
2018-05-06T06:44:36.118Z,21.76
2018-05-06T06:45:36.037Z,22.17
2018-05-06T06:46:36.181Z,22.73
2018-05-06T06:47:36.185Z,23.31
2018-05-06T06:48:36.322Z,23.80
2018-05-06T06:49:36.390Z,24.21
2018-05-06T06:50:36.450Z,24.17
2018-05-06T06:51:36.595Z,24.85
2018-05-06T06:52:36.573Z,25.26
2018-05-06T06:53:36.613Z,25.58
2018-05-06T06:54:36.681Z,25.98
2018-05-06T06:55:36.809Z,26.15
2018-05-06T06:56:37.025Z,26.48
2018-05-06T06:57:36.989Z,26.80
2018-05-06T06:58:36.974Z,26.92
2018-05-06T06:59:37.114Z,27.07
2018-05-06T07:00:37.181Z,27.18
2018-05-06T07:01:37.398Z,26.55
2018-05-06T07:02:37.362Z,26.92
2018-05-06T07:03:37.354Z,27.05
2018-05-06T07:04:37.477Z,27.00
2018-05-06T07:05:37.682Z,27.27
2018-05-06T07:06:37.610Z,27.54
2018-05-06T07:07:37.870Z,28.11
2018-05-06T07:08:37.786Z,28.47
2018-05-06T07:09:37.826Z,28.72
2018-05-06T07:10:38.154Z,28.93
2018-05-06T07:11:38.038Z,28.69
2018-05-06T07:12:38.062Z,28.91
2018-05-06T07:13:38.134Z,28.44
2018-05-06T07:14:38.430Z,28.84
2018-05-06T07:15:38.342Z,29.01
2018-05-06T07:16:38.398Z,29.41
2018-05-06T07:17:38.459Z,29.76
2018-05-06T07:18:38.539Z,30.00
2018-05-06T07:19:38.651Z,30.23
2018-05-06T07:20:38.823Z,30.28
2018-05-06T07:21:38.795Z,30.66
2018-05-06T07:22:38.883Z,30.72
2018-05-06T07:23:39.003Z,30.81
2018-05-06T07:24:39.111Z,30.92
2018-05-06T07:25:39.127Z,31.10
2018-05-06T07:26:39.220Z,31.02
2018-05-06T07:27:39.266Z,31.20
2018-05-06T07:28:39.358Z,31.22
2018-05-06T07:29:39.767Z,31.28
2018-05-06T07:30:39.607Z,31.33
2018-05-06T07:31:39.635Z,31.43
2018-05-06T07:32:39.687Z,31.56
2018-05-06T07:33:39.802Z,31.92
2018-05-06T07:34:39.863Z,31.97
2018-05-06T07:35:40.015Z,32.04
2018-05-06T07:36:40.011Z,32.11
2018-05-06T07:37:40.091Z,32.08
2018-05-06T07:38:40.167Z,31.87
2018-05-06T07:39:40.447Z,31.62
2018-05-06T07:40:40.331Z,31.56
2018-05-06T07:41:40.455Z,31.49
2018-05-06T07:42:40.491Z,31.47
2018-05-06T07:43:40.595Z,31.44
2018-05-06T07:44:40.742Z,31.78
2018-05-06T07:45:40.855Z,31.94
2018-05-06T07:46:40.848Z,31.87
2018-05-06T07:47:40.927Z,31.93
2018-05-06T07:48:41.032Z,32.03
2018-05-06T07:49:41.092Z,32.29
2018-05-06T07:50:41.160Z,32.38
2018-05-06T07:51:41.239Z,32.56
2018-05-06T07:52:41.332Z,32.31
2018-05-06T07:53:41.411Z,32.37
2018-05-06T07:54:41.531Z,32.29
2018-05-06T07:55:41.816Z,32.16
2018-05-06T07:56:41.664Z,32.38
2018-05-06T07:57:41.746Z,32.03
2018-05-06T07:58:41.837Z,31.96
2018-05-06T07:59:41.937Z,32.01
2018-05-06T08:00:42.000Z,31.74
2018-05-06T08:01:42.094Z,31.99
2018-05-06T08:02:42.188Z,32.16
2018-05-06T08:03:42.236Z,32.07
2018-05-06T08:04:42.332Z,31.51
2018-05-06T08:05:42.402Z,31.51
2018-05-06T08:06:42.489Z,31.84
2018-05-06T08:07:42.572Z,32.11
2018-05-06T08:08:42.657Z,32.27
2018-05-06T08:09:42.752Z,32.53
2018-05-06T08:10:42.823Z,32.52
2018-05-06T08:11:42.909Z,32.43
2018-05-06T08:12:42.985Z,32.38
2018-05-06T08:13:43.068Z,32.45
2018-05-06T08:14:43.181Z,32.48
2018-05-06T08:15:43.235Z,32.19
2018-05-06T08:16:43.309Z,32.21
2018-05-06T08:17:43.397Z,32.09
2018-05-06T08:18:43.477Z,32.22
2018-05-06T08:19:43.565Z,32.36
2018-05-06T08:20:43.653Z,32.51
2018-05-06T08:21:43.766Z,32.52
2018-05-06T08:22:43.809Z,32.58
2018-05-06T08:23:43.893Z,32.74
2018-05-06T08:24:43.982Z,32.78
2018-05-06T08:25:44.061Z,32.80
2018-05-06T08:26:44.141Z,33.01
2018-05-06T08:27:44.227Z,32.87
2018-05-06T08:28:44.305Z,32.77
2018-05-06T08:29:44.385Z,32.56
2018-05-06T08:30:44.490Z,32.85
2018-05-06T08:31:44.553Z,33.04
2018-05-06T08:32:44.634Z,33.19
2018-05-06T08:33:44.718Z,33.49
2018-05-06T08:34:44.800Z,33.42
2018-05-06T08:35:44.886Z,33.24
2018-05-06T08:36:44.974Z,33.37
2018-05-06T08:37:45.046Z,33.31
2018-05-06T08:38:45.126Z,33.31
2018-05-06T08:39:45.214Z,33.08
2018-05-06T08:40:45.306Z,33.12
2018-05-06T08:41:45.378Z,33.01
2018-05-06T08:42:45.458Z,33.12
2018-05-06T08:43:45.538Z,33.01
2018-05-06T08:44:45.623Z,33.22
2018-05-06T08:45:45.797Z,33.30
2018-05-06T08:46:45.790Z,33.24
2018-05-06T08:47:45.866Z,33.24
2018-05-06T08:48:45.950Z,33.11
2018-05-06T08:49:46.031Z,32.83
2018-05-06T08:50:46.419Z,32.41
2018-05-06T08:51:46.195Z,32.58
2018-05-06T08:52:46.279Z,32.23
2018-05-06T08:53:46.391Z,32.07
2018-05-06T08:54:46.439Z,32.27
2018-05-06T08:55:46.526Z,32.75
2018-05-06T08:56:46.611Z,32.56
2018-05-06T08:57:46.690Z,32.40
2018-05-06T08:58:46.768Z,32.49
2018-05-06T08:59:46.849Z,32.73
2018-05-06T09:00:46.935Z,33.05
2018-05-06T09:01:47.021Z,32.86
2018-05-06T09:02:47.091Z,32.97
2018-05-06T09:03:47.175Z,32.92
2018-05-06T09:04:47.255Z,32.93
2018-05-06T09:05:47.643Z,32.86
2018-05-06T09:06:47.416Z,32.86
2018-05-06T09:07:47.501Z,32.95
2018-05-06T09:08:47.579Z,33.12
2018-05-06T09:09:47.660Z,32.53
2018-05-06T09:10:47.748Z,32.83
2018-05-06T09:11:47.831Z,32.65
2018-05-06T09:12:47.904Z,32.89
2018-05-06T09:13:47.983Z,32.89
2018-05-06T09:14:48.064Z,33.04
2018-05-06T09:15:48.268Z,32.75
2018-05-06T09:16:48.223Z,32.40
2018-05-06T09:17:48.312Z,32.53
2018-05-06T09:18:48.388Z,32.68
2018-05-06T09:19:48.518Z,32.83
2018-05-06T09:20:48.552Z,32.93
2018-05-06T09:21:48.632Z,32.67
2018-05-06T09:22:48.708Z,32.77
2018-05-06T09:23:48.788Z,32.67
2018-05-06T09:24:48.870Z,32.77
2018-05-06T09:25:48.958Z,32.74
2018-05-06T09:26:49.036Z,32.93
2018-05-06T09:27:49.108Z,33.17
2018-05-06T09:28:49.188Z,33.22
2018-05-06T09:29:49.268Z,32.93
2018-05-06T09:30:49.460Z,32.85
2018-05-06T09:31:49.428Z,32.82
2018-05-06T09:32:49.732Z,33.11
2018-05-06T09:33:50.276Z,33.08
2018-05-06T09:34:50.764Z,33.15
2018-05-06T09:35:49.785Z,32.96
2018-05-06T09:36:49.832Z,33.11
2018-05-06T09:37:49.928Z,33.11
2018-05-06T09:38:49.984Z,32.85
2018-05-06T09:39:50.062Z,32.74
2018-05-06T09:40:50.292Z,32.48
2018-05-06T09:41:50.225Z,32.34
2018-05-06T09:42:50.300Z,32.43
2018-05-06T09:43:50.381Z,32.55
2018-05-06T09:44:50.456Z,32.04
2018-05-06T09:45:50.544Z,32.15
2018-05-06T09:46:50.624Z,32.08
2018-05-06T09:47:50.753Z,32.14
2018-05-06T09:48:50.774Z,31.94
2018-05-06T09:49:50.853Z,31.99
2018-05-06T09:50:50.977Z,31.89
2018-05-06T09:51:51.013Z,32.03
2018-05-06T09:52:51.085Z,32.08
2018-05-06T09:53:51.249Z,32.03
2018-05-06T09:54:51.241Z,31.92
2018-05-06T09:55:51.322Z,32.03
2018-05-06T09:56:51.429Z,32.15
2018-05-06T09:57:51.477Z,32.12
2018-05-06T09:58:51.558Z,32.21
2018-05-06T09:59:51.635Z,32.41
2018-05-06T10:00:51.713Z,32.29
2018-05-06T10:01:51.881Z,32.43
2018-05-06T10:02:51.885Z,32.41
2018-05-06T10:03:51.945Z,32.30
2018-05-06T10:04:52.025Z,32.16
2018-05-06T10:05:52.181Z,32.01
2018-05-06T10:06:52.185Z,32.09
2018-05-06T10:07:52.417Z,31.99
2018-05-06T10:08:52.333Z,32.23
2018-05-06T10:09:52.410Z,32.27
2018-05-06T10:10:52.486Z,32.26
2018-05-06T10:11:52.562Z,32.22
2018-05-06T10:12:52.650Z,32.26
2018-05-06T10:13:52.729Z,32.18
2018-05-06T10:14:52.794Z,31.71
2018-05-06T10:15:52.925Z,31.94
2018-05-06T10:16:52.950Z,31.51
2018-05-06T10:17:53.046Z,31.28
2018-05-06T10:18:53.109Z,31.33
2018-05-06T10:19:53.179Z,31.29
2018-05-06T10:20:53.258Z,31.14
2018-05-06T10:21:53.333Z,31.29
2018-05-06T10:22:53.420Z,31.05
2018-05-06T10:23:53.489Z,31.17
2018-05-06T10:24:53.562Z,31.22
2018-05-06T10:25:53.643Z,31.34
2018-05-06T10:26:53.715Z,31.36
2018-05-06T10:27:53.810Z,31.22
2018-05-06T10:28:53.875Z,31.24
2018-05-06T10:29:53.942Z,31.36
2018-05-06T10:30:54.019Z,31.46
2018-05-06T10:31:54.094Z,31.42
2018-05-06T10:32:54.331Z,31.58
2018-05-06T10:33:54.246Z,31.65
2018-05-06T10:34:54.318Z,31.21
2018-05-06T10:35:54.395Z,30.94
2018-05-06T10:36:54.471Z,30.91
2018-05-06T10:37:54.555Z,30.85
2018-05-06T10:38:54.638Z,30.81
2018-05-06T10:39:54.699Z,30.66
2018-05-06T10:40:54.774Z,30.77
2018-05-06T10:41:54.846Z,30.90
2018-05-06T10:42:54.935Z,30.94
2018-05-06T10:43:55.083Z,30.90
2018-05-06T10:44:55.075Z,30.43
2018-05-06T10:45:55.147Z,30.25
2018-05-06T10:46:55.223Z,30.35
2018-05-06T10:47:55.324Z,30.53
2018-05-06T10:48:55.367Z,30.50
2018-05-06T10:49:55.475Z,30.39
2018-05-06T10:50:55.532Z,30.54
2018-05-06T10:51:55.596Z,30.54
2018-05-06T10:52:55.684Z,30.70
2018-05-06T10:53:55.751Z,30.77
2018-05-06T10:54:55.819Z,30.73
2018-05-06T10:55:55.895Z,30.78
2018-05-06T10:56:55.971Z,30.62
2018-05-06T10:57:56.070Z,30.35
2018-05-06T10:58:56.123Z,30.32
2018-05-06T10:59:56.192Z,30.34
2018-05-06T11:00:56.267Z,29.87
2018-05-06T11:01:56.344Z,29.81
2018-05-06T11:02:56.428Z,29.91
2018-05-06T11:03:56.543Z,30.03
2018-05-06T11:04:56.571Z,30.08
2018-05-06T11:05:56.643Z,30.30
2018-05-06T11:06:56.711Z,30.05
2018-05-06T11:07:56.795Z,29.93
2018-05-06T11:08:56.872Z,29.79
2018-05-06T11:09:56.935Z,29.59
2018-05-06T11:10:57.012Z,29.76
2018-05-06T11:11:57.084Z,29.93
2018-05-06T11:12:57.172Z,30.08
2018-05-06T11:13:57.236Z,30.06
2018-05-06T11:14:57.304Z,29.90
2018-05-06T11:15:57.385Z,29.81
2018-05-06T11:16:57.456Z,29.79
2018-05-06T11:17:57.540Z,30.06
2018-05-06T11:18:57.613Z,30.15
2018-05-06T11:19:57.676Z,30.16
2018-05-06T11:20:57.752Z,30.19
2018-05-06T11:21:57.824Z,30.15
2018-05-06T11:22:57.904Z,29.88
2018-05-06T11:23:57.981Z,29.95
2018-05-06T11:24:58.048Z,29.94
2018-05-06T11:25:58.120Z,30.06
2018-05-06T11:26:58.195Z,29.93
2018-05-06T11:27:58.284Z,30.09
2018-05-06T11:28:58.348Z,30.16
2018-05-06T11:29:58.416Z,30.13
2018-05-06T11:30:58.496Z,30.27
2018-05-06T11:31:58.568Z,30.21
2018-05-06T11:32:58.645Z,29.88
2018-05-06T11:33:58.722Z,29.87
2018-05-06T11:34:58.788Z,29.94
2018-05-06T11:35:58.860Z,30.08
2018-05-06T11:36:58.937Z,29.91
2018-05-06T11:37:59.016Z,29.84
2018-05-06T11:38:59.090Z,29.66
2018-05-06T11:39:59.156Z,29.79
2018-05-06T11:40:59.288Z,30.03
2018-05-06T11:41:59.305Z,30.27
2018-05-06T11:42:59.384Z,30.44
2018-05-06T11:43:59.457Z,30.28
2018-05-06T11:44:59.525Z,30.39
2018-05-06T11:45:59.601Z,30.40
2018-05-06T11:46:59.673Z,30.34
2018-05-06T11:47:59.831Z,30.35
2018-05-06T11:48:59.833Z,30.19
2018-05-06T11:49:59.897Z,30.16
2018-05-06T11:50:59.969Z,30.24
2018-05-06T11:52:00.042Z,30.19
2018-05-06T11:53:00.427Z,30.24
2018-05-06T11:54:01.883Z,30.34
2018-05-06T11:55:00.269Z,30.32
2018-05-06T11:56:00.337Z,30.21
2018-05-06T11:57:02.383Z,30.48
2018-05-06T11:58:02.389Z,30.63
2018-05-06T11:59:00.561Z,30.55
2018-05-06T12:00:00.633Z,30.62
2018-05-06T12:01:00.710Z,30.68
2018-05-06T12:02:00.782Z,30.69
2018-05-06T12:03:00.854Z,30.66
2018-05-06T12:04:00.965Z,30.65
2018-05-06T12:05:01.006Z,30.87
2018-05-06T12:06:01.082Z,30.88
2018-05-06T12:07:01.149Z,30.92
2018-05-06T12:08:01.225Z,30.80
2018-05-06T12:09:01.318Z,30.90
2018-05-06T12:10:01.387Z,31.06
2018-05-06T12:11:01.446Z,30.87
2018-05-06T12:12:01.522Z,31.03
2018-05-06T12:13:01.594Z,31.07
2018-05-06T12:14:01.674Z,31.07
2018-05-06T12:15:01.758Z,31.27
2018-05-06T12:16:01.909Z,31.39
2018-05-06T12:17:01.898Z,31.37
2018-05-06T12:18:01.968Z,31.51
2018-05-06T12:19:02.046Z,31.64
2018-05-06T12:20:02.121Z,31.43
2018-05-06T12:21:02.191Z,31.37
2018-05-06T12:22:02.266Z,31.22
2018-05-06T12:23:02.334Z,31.00
2018-05-06T12:24:02.448Z,31.14
2018-05-06T12:25:02.482Z,31.17
2018-05-06T12:26:02.558Z,31.27
2018-05-06T12:27:02.633Z,30.94
2018-05-06T12:28:02.707Z,31.00
2018-05-06T12:29:02.787Z,30.96
2018-05-06T12:30:02.862Z,31.06
2018-05-06T12:31:02.928Z,31.06
2018-05-06T12:32:03.003Z,30.90
2018-05-06T12:33:03.075Z,30.66
2018-05-06T12:34:03.551Z,30.65
2018-05-06T12:35:03.227Z,30.62
2018-05-06T12:36:03.306Z,30.69
2018-05-06T12:37:03.375Z,30.46
2018-05-06T12:38:03.452Z,30.53
2018-05-06T12:39:03.519Z,30.51
2018-05-06T12:40:03.615Z,30.50
2018-05-06T12:41:03.673Z,30.40
2018-05-06T12:42:03.749Z,30.53
2018-05-06T12:43:03.815Z,30.63
2018-05-06T12:44:03.892Z,30.66
2018-05-06T12:45:03.972Z,30.96
2018-05-06T12:46:04.047Z,31.06
2018-05-06T12:47:04.112Z,31.03
2018-05-06T12:48:04.188Z,31.20
2018-05-06T12:49:04.264Z,31.28
2018-05-06T12:50:04.448Z,31.43
2018-05-06T12:51:04.412Z,31.51
2018-05-06T12:52:04.484Z,31.69
2018-05-06T12:53:04.560Z,31.55
2018-05-06T12:54:04.635Z,31.59
2018-05-06T12:55:04.712Z,31.62
2018-05-06T12:56:04.784Z,31.65